KHII/HII METAR and TAF weather

Enter ICAO airport designator
Station Type Date Time Source
KHII METAR 2022/08/13 11:55 UTC NOAA

KHII 131155Z AUTO 31006KT 10SM CLR 29/20 A2993 RMK AO2


Station Type Date Time Source
KHII Decoded METAR 2022/08/13 11:55 UTC NOAA

Station name not available
Aug 13, 2022 - 07:55 AM EDT / 2022.08.13 1155 UTC
Wind: from the NW (310 degrees) at 7 MPH (6 KT):0
Visibility: 10 mile(s):0
Sky conditions: clear
Temperature: 84 F (29 C)
Dew Point: 68 F (20 C)
Relative Humidity: 58%
Pressure (altimeter): 29.93 in. Hg (1013 hPa)
ob: KHII 131155Z AUTO 31006KT 10SM CLR 29/20 A2993 RMK AO2
cycle: 12

Station Type Date Time Source
KHII TAF UTC NOAA

Error!

Example: see airport list